Time,TemperatureF,DewpointF,PressureIn,WindDirection,WindDirectionDegrees,WindSpeedMPH,WindSpeedGustMPH,Humidity,HourlyPrecipIn,Conditions,Clouds,dailyrainin,SoftwareType,DateUTC
2013-08-28 00:04:00,78.1,71.4,29.94,SW,236,0.9,2.9,80,0.00,,,0.00,meteobridge,2013-08-28 04:04:00,
2013-08-28 00:09:00,78.1,71.4,29.94,West,265,2.9,2.9,80,0.00,,,0.00,meteobridge,2013-08-28 04:09:00,
2013-08-28 00:14:00,78.1,71.4,29.93,SSW,208,4.0,6.0,80,0.00,,,0.00,meteobridge,2013-08-28 04:14:00,
2013-08-28 00:19:00,78.1,71.4,29.93,WSW,243,2.0,6.9,80,0.00,,,0.00,meteobridge,2013-08-28 04:19:00,
2013-08-28 00:24:00,78.1,71.8,29.93,WSW,247,0.9,4.0,81,0.00,,,0.00,meteobridge,2013-08-28 04:24:00,
2013-08-28 00:29:00,78.1,71.8,29.93,SW,232,2.0,2.9,81,0.00,,,0.00,meteobridge,2013-08-28 04:29:00,
2013-08-28 00:35:00,77.9,71.6,29.93,WSW,239,0.0,4.9,81,0.00,,,0.00,meteobridge,2013-08-28 04:35:00,
2013-08-28 00:45:00,77.9,71.6,29.93,SW,229,0.0,0.9,81,0.00,,,0.00,meteobridge,2013-08-28 04:45:00,
2013-08-28 00:50:00,77.9,72.0,29.93,West,261,0.9,2.0,82,0.00,,,0.00,meteobridge,2013-08-28 04:50:00,
2013-08-28 00:55:00,77.9,72.0,29.93,West,263,0.0,2.0,82,0.00,,,0.00,meteobridge,2013-08-28 04:55:00,
2013-08-28 01:00:00,77.7,71.8,29.93,West,264,0.0,0.9,82,0.00,,,0.00,meteobridge,2013-08-28 05:00:00,
2013-08-28 01:05:00,77.7,72.1,29.93,SSW,193,0.0,4.0,83,0.00,,,0.00,meteobridge,2013-08-28 05:05:00,
2013-08-28 01:11:00,77.7,72.1,29.93,SSW,195,0.0,0.9,83,0.00,,,0.00,meteobridge,2013-08-28 05:11:00,
2013-08-28 01:16:00,77.5,72.0,29.93,SSW,195,2.0,2.0,83,0.00,,,0.00,meteobridge,2013-08-28 05:16:00,
2013-08-28 01:21:00,77.5,72.0,29.93,West,272,0.0,2.9,83,0.00,,,0.00,meteobridge,2013-08-28 05:21:00,
2013-08-28 01:26:00,77.5,72.0,29.93,WSW,258,0.0,0.0,83,0.00,,,0.00,meteobridge,2013-08-28 05:26:00,
2013-08-28 01:31:00,77.5,72.3,29.93,WSW,248,0.0,0.9,84,0.00,,,0.00,meteobridge,2013-08-28 05:31:00,
2013-08-28 01:36:00,77.4,72.1,29.93,WSW,251,0.0,2.0,84,0.00,,,0.00,meteobridge,2013-08-28 05:36:00,
2013-08-28 01:42:00,77.4,72.1,29.93,WSW,251,0.0,0.0,84,0.00,,,0.00,meteobridge,2013-08-28 05:42:00,
2013-08-28 01:47:00,77.2,72.0,29.94,WSW,251,0.0,0.0,84,0.00,,,0.00,meteobridge,2013-08-28 05:47:00,
2013-08-28 01:52:00,77.2,72.3,29.94,WSW,251,0.0,0.0,85,0.00,,,0.00,meteobridge,2013-08-28 05:52:00,
2013-08-28 01:57:00,77.2,72.3,29.94,WSW,248,0.0,2.9,85,0.00,,,0.00,meteobridge,2013-08-28 05:57:00,
2013-08-28 02:02:00,77.2,72.3,29.93,WSW,248,0.0,0.0,85,0.00,,,0.00,meteobridge,2013-08-28 06:02:00,
2013-08-28 02:07:00,77.0,72.1,29.93,WSW,248,0.0,2.0,85,0.00,,,0.00,meteobridge,2013-08-28 06:07:00,
2013-08-28 02:13:00,76.8,72.3,29.93,WSW,247,0.0,0.9,86,0.00,,,0.00,meteobridge,2013-08-28 06:13:00,
2013-08-28 02:18:00,76.8,72.3,29.92,WSW,247,0.0,0.9,86,0.00,,,0.00,meteobridge,2013-08-28 06:18:00,
2013-08-28 02:23:00,76.6,72.1,29.92,WSW,247,0.0,0.9,86,0.00,,,0.00,meteobridge,2013-08-28 06:23:00,
2013-08-28 02:28:00,76.6,72.5,29.92,WSW,247,0.0,0.0,87,0.00,,,0.00,meteobridge,2013-08-28 06:28:00,
2013-08-28 02:34:00,76.6,72.5,29.91,WSW,247,0.9,2.0,87,0.00,,,0.00,meteobridge,2013-08-28 06:34:00,
2013-08-28 02:39:00,76.6,72.5,29.91,WSW,247,0.0,0.0,87,0.00,,,0.00,meteobridge,2013-08-28 06:39:00,
2013-08-28 02:44:00,76.6,72.5,29.91,WSW,247,0.0,0.0,87,0.00,,,0.00,meteobridge,2013-08-28 06:44:00,
2013-08-28 02:49:00,76.5,72.3,29.92,WSW,247,0.0,0.0,87,0.00,,,0.00,meteobridge,2013-08-28 06:49:00,
2013-08-28 02:54:00,76.5,72.3,29.92,WSW,247,0.0,0.9,87,0.00,,,0.00,meteobridge,2013-08-28 06:54:00,
2013-08-28 02:59:00,76.5,72.3,29.91,WSW,247,0.0,0.0,87,0.00,,,0.00,meteobridge,2013-08-28 06:59:00,
2013-08-28 03:05:00,76.3,72.5,29.91,WSW,247,0.0,0.0,88,0.00,,,0.00,meteobridge,2013-08-28 07:05:00,
2013-08-28 03:10:00,76.3,72.5,29.91,WSW,247,0.0,0.0,88,0.00,,,0.00,meteobridge,2013-08-28 07:10:00,
2013-08-28 03:15:00,76.1,72.3,29.91,WSW,247,0.0,2.0,88,0.00,,,0.00,meteobridge,2013-08-28 07:15:00,
2013-08-28 03:20:00,76.1,72.7,29.91,SW,236,0.0,0.9,89,0.00,,,0.00,meteobridge,2013-08-28 07:20:00,
2013-08-28 03:25:00,75.9,72.5,29.91,SW,236,0.0,2.0,89,0.00,,,0.00,meteobridge,2013-08-28 07:25:00,
2013-08-28 03:30:00,75.9,72.5,29.92,WSW,237,0.0,0.0,89,0.00,,,0.00,meteobridge,2013-08-28 07:30:00,
2013-08-28 03:36:00,75.9,72.5,29.92,WSW,239,0.0,2.0,89,0.00,,,0.00,meteobridge,2013-08-28 07:36:00,
2013-08-28 03:41:00,75.7,72.7,29.92,SW,236,0.0,2.0,90,0.00,,,0.00,meteobridge,2013-08-28 07:41:00,
2013-08-28 03:46:00,75.7,72.7,29.91,SW,222,0.0,4.0,90,0.00,,,0.00,meteobridge,2013-08-28 07:46:00,
2013-08-28 03:51:00,75.7,72.7,29.91,SSE,167,4.0,4.9,90,0.00,,,0.00,meteobridge,2013-08-28 07:51:00,
2013-08-28 03:56:00,75.7,72.7,29.91,West,268,0.0,2.9,90,0.00,,,0.00,meteobridge,2013-08-28 07:56:00,
2013-08-28 04:01:00,75.7,72.7,29.91,WSW,237,0.0,0.0,90,0.00,,,0.00,meteobridge,2013-08-28 08:01:00,
2013-08-28 04:06:00,75.7,72.7,29.91,SW,226,4.9,6.0,90,0.00,,,0.00,meteobridge,2013-08-28 08:06:00,
2013-08-28 04:11:00,75.7,72.7,29.91,West,267,0.9,0.9,90,0.00,,,0.00,meteobridge,2013-08-28 08:11:00,
2013-08-28 04:16:00,75.7,72.9,29.92,WSW,247,0.0,2.0,91,0.00,,,0.00,meteobridge,2013-08-28 08:16:00,
2013-08-28 04:21:00,75.7,72.9,29.92,SW,230,2.9,2.9,91,0.00,,,0.00,meteobridge,2013-08-28 08:21:00,
2013-08-28 04:26:00,75.7,72.9,29.92,WSW,258,0.9,0.9,91,0.00,,,0.00,meteobridge,2013-08-28 08:26:00,
2013-08-28 04:32:00,75.7,72.9,29.92,WSW,254,0.0,0.9,91,0.00,,,0.00,meteobridge,2013-08-28 08:32:00,
2013-08-28 04:37:00,75.7,72.9,29.92,WSW,254,0.0,0.9,91,0.00,,,0.00,meteobridge,2013-08-28 08:37:00,
2013-08-28 04:42:00,75.6,72.7,29.92,WSW,254,0.0,2.0,91,0.00,,,0.00,meteobridge,2013-08-28 08:42:00,
2013-08-28 04:47:00,75.6,72.7,29.92,WSW,254,0.0,0.0,91,0.00,,,0.00,meteobridge,2013-08-28 08:47:00,
2013-08-28 04:52:00,75.6,72.7,29.92,WSW,254,0.0,2.9,91,0.00,,,0.00,meteobridge,2013-08-28 08:52:00,
2013-08-28 04:57:00,75.4,72.5,29.92,WSW,254,0.0,0.0,91,0.00,,,0.00,meteobridge,2013-08-28 08:57:00,
2013-08-28 05:02:00,75.4,72.5,29.92,WSW,254,0.0,0.0,91,0.00,,,0.00,meteobridge,2013-08-28 09:02:00,
2013-08-28 05:08:00,75.4,72.5,29.92,WSW,254,0.0,0.9,91,0.00,,,0.00,meteobridge,2013-08-28 09:08:00,
2013-08-28 05:13:00,75.4,72.9,29.92,WSW,251,0.0,0.0,92,0.00,,,0.00,meteobridge,2013-08-28 09:13:00,
2013-08-28 05:18:00,75.0,72.5,29.92,WSW,251,0.0,0.0,92,0.00,,,0.00,meteobridge,2013-08-28 09:18:00,
2013-08-28 05:23:00,75.0,72.5,29.92,WSW,251,0.0,0.0,92,0.00,,,0.00,meteobridge,2013-08-28 09:23:00,
2013-08-28 05:28:00,75.0,72.5,29.92,WSW,253,0.0,0.9,92,0.00,,,0.00,meteobridge,2013-08-28 09:28:00,
2013-08-28 05:34:00,74.8,72.7,29.92,WSW,253,0.0,0.0,93,0.00,,,0.00,meteobridge,2013-08-28 09:34:00,
2013-08-28 05:39:00,74.8,72.7,29.92,West,263,0.9,2.0,93,0.00,,,0.00,meteobridge,2013-08-28 09:39:00,
2013-08-28 05:44:00,74.7,72.5,29.92,WSW,237,0.0,6.0,93,0.00,,,0.00,meteobridge,2013-08-28 09:44:00,
2013-08-28 05:49:00,74.7,72.5,29.91,WSW,246,0.0,2.9,93,0.00,,,0.00,meteobridge,2013-08-28 09:49:00,
2013-08-28 05:54:00,74.7,72.9,29.91,WSW,258,0.9,4.9,94,0.00,,,0.00,meteobridge,2013-08-28 09:54:00,
2013-08-28 05:59:00,74.7,72.9,29.91,WSW,256,0.0,0.0,94,0.00,,,0.00,meteobridge,2013-08-28 09:59:00,
2013-08-28 06:04:00,74.7,72.9,29.91,WSW,256,0.0,2.0,94,0.00,,,0.00,meteobridge,2013-08-28 10:04:00,
2013-08-28 06:09:00,74.7,72.9,29.91,WSW,256,0.0,0.0,94,0.00,,,0.00,meteobridge,2013-08-28 10:09:00,
2013-08-28 06:14:00,74.7,72.9,29.92,WSW,256,0.0,0.0,94,0.00,,,0.00,meteobridge,2013-08-28 10:14:00,
2013-08-28 06:19:00,74.7,72.9,29.92,WSW,256,0.0,0.0,94,0.00,,,0.00,meteobridge,2013-08-28 10:19:00,
2013-08-28 06:25:00,74.7,72.9,29.92,WSW,256,0.0,0.0,94,0.00,,,0.00,meteobridge,2013-08-28 10:25:00,
2013-08-28 06:30:00,74.7,72.9,29.92,WSW,256,0.0,0.0,94,0.00,,,0.00,meteobridge,2013-08-28 10:30:00,
2013-08-28 06:35:00,74.7,72.9,29.92,WSW,256,0.0,0.0,94,0.00,,,0.00,meteobridge,2013-08-28 10:35:00,
2013-08-28 06:40:00,74.5,72.7,29.92,WSW,256,0.0,0.0,94,0.00,,,0.00,meteobridge,2013-08-28 10:40:00,
2013-08-28 06:45:00,74.1,72.3,29.93,WSW,256,0.0,0.0,94,0.00,,,0.00,meteobridge,2013-08-28 10:45:00,
2013-08-28 06:50:00,74.1,72.7,29.93,WSW,256,0.0,0.0,95,0.00,,,0.00,meteobridge,2013-08-28 10:50:00,
2013-08-28 06:55:00,74.1,72.7,29.93,WSW,256,0.0,0.0,95,0.00,,,0.00,meteobridge,2013-08-28 10:55:00,
2013-08-28 07:00:00,73.9,72.5,29.93,WSW,256,0.0,0.0,95,0.00,,,0.00,meteobridge,2013-08-28 11:00:00,
2013-08-28 07:05:00,73.9,72.5,29.93,WSW,256,0.0,0.9,95,0.00,,,0.00,meteobridge,2013-08-28 11:05:00,
2013-08-28 07:10:00,73.8,72.3,29.93,WSW,256,0.0,0.9,95,0.00,,,0.00,meteobridge,2013-08-28 11:10:00,
2013-08-28 07:15:00,73.9,72.5,29.93,South,182,6.9,6.9,95,0.00,,,0.00,meteobridge,2013-08-28 11:15:00,
2013-08-28 07:20:00,73.9,72.5,29.93,WSW,243,0.9,6.9,95,0.00,,,0.00,meteobridge,2013-08-28 11:20:00,
2013-08-28 07:26:00,73.9,72.7,29.93,WSW,251,0.0,6.0,96,0.00,,,0.00,meteobridge,2013-08-28 11:26:00,
2013-08-28 07:31:00,73.9,72.7,29.92,SW,230,0.9,2.9,96,0.00,,,0.00,meteobridge,2013-08-28 11:31:00,
2013-08-28 07:36:00,74.1,72.9,29.92,South,182,2.0,6.9,96,0.00,,,0.00,meteobridge,2013-08-28 11:36:00,
2013-08-28 07:41:00,74.5,73.0,29.92,SSW,198,2.0,4.9,95,0.00,,,0.00,meteobridge,2013-08-28 11:41:00,
2013-08-28 07:46:00,74.5,73.0,29.91,WSW,237,4.0,6.9,95,0.00,,,0.00,meteobridge,2013-08-28 11:46:00,
2013-08-28 07:51:00,74.7,73.2,29.91,SW,217,0.9,8.1,95,0.00,,,0.00,meteobridge,2013-08-28 11:51:00,
2013-08-28 07:56:00,74.7,73.2,29.91,West,261,0.9,8.1,95,0.00,,,0.00,meteobridge,2013-08-28 11:56:00,
2013-08-28 08:01:00,74.8,73.2,29.91,SSW,195,2.0,12.1,95,0.00,,,0.00,meteobridge,2013-08-28 12:01:00,
2013-08-28 08:06:00,75.0,73.2,29.91,WSW,253,0.9,4.9,94,0.00,,,0.00,meteobridge,2013-08-28 12:06:00,
2013-08-28 08:11:00,75.0,73.2,29.91,SSW,208,2.9,8.1,94,0.00,,,0.00,meteobridge,2013-08-28 12:11:00,
2013-08-28 08:16:00,75.4,73.6,29.92,NNW,332,0.0,4.9,94,0.00,,,0.00,meteobridge,2013-08-28 12:16:00,
2013-08-28 08:21:00,75.4,73.6,29.92,NNW,335,2.9,2.9,94,0.00,,,0.00,meteobridge,2013-08-28 12:21:00,
2013-08-28 08:27:00,75.6,73.4,29.92,NNW,328,0.0,2.0,93,0.00,,,0.00,meteobridge,2013-08-28 12:27:00,
2013-08-28 08:32:00,75.9,73.8,29.92,WNW,292,0.0,2.0,93,0.00,,,0.00,meteobridge,2013-08-28 12:32:00,
2013-08-28 08:37:00,76.1,73.6,29.92,WSW,253,2.9,6.0,92,0.00,,,0.00,meteobridge,2013-08-28 12:37:00,
2013-08-28 08:42:00,76.5,73.6,29.92,WSW,243,0.9,2.9,91,0.00,,,0.00,meteobridge,2013-08-28 12:42:00,
2013-08-28 08:47:00,76.8,73.6,29.92,SSW,203,0.0,6.9,90,0.00,,,0.00,meteobridge,2013-08-28 12:47:00,
2013-08-28 08:52:00,77.2,73.8,29.92,SW,236,2.0,2.9,89,0.00,,,0.00,meteobridge,2013-08-28 12:52:00,
2013-08-28 08:57:00,77.4,73.6,29.92,WSW,243,0.0,0.9,88,0.00,,,0.00,meteobridge,2013-08-28 12:57:00,
2013-08-28 09:02:00,77.5,73.4,29.93,SW,227,0.0,4.9,87,0.00,,,0.00,meteobridge,2013-08-28 13:02:00,
2013-08-28 09:08:00,77.7,73.6,29.93,SSW,200,0.0,2.0,87,0.00,,,0.00,meteobridge,2013-08-28 13:08:00,
2013-08-28 09:13:00,77.9,73.4,29.93,SSW,200,0.0,0.9,86,0.00,,,0.00,meteobridge,2013-08-28 13:13:00,
2013-08-28 09:18:00,77.7,73.2,29.93,SSW,199,0.9,4.9,86,0.00,,,0.00,meteobridge,2013-08-28 13:18:00,
2013-08-28 09:23:00,77.9,73.4,29.93,SSW,199,0.0,0.0,86,0.00,,,0.00,meteobridge,2013-08-28 13:23:00,
2013-08-28 09:28:00,78.3,73.4,29.93,West,267,0.0,4.9,85,0.00,,,0.00,meteobridge,2013-08-28 13:28:00,
2013-08-28 09:33:00,79.0,73.8,29.93,SW,232,0.0,4.9,84,0.00,,,0.00,meteobridge,2013-08-28 13:33:00,
2013-08-28 09:38:00,79.5,73.6,29.93,WNW,288,8.9,8.9,82,0.00,,,0.00,meteobridge,2013-08-28 13:38:00,
2013-08-28 09:43:00,80.1,73.4,29.93,WSW,248,0.9,6.0,80,0.00,,,0.00,meteobridge,2013-08-28 13:43:00,
2013-08-28 09:48:00,80.8,73.2,29.93,West,267,2.9,6.9,78,0.00,,,0.00,meteobridge,2013-08-28 13:48:00,
2013-08-28 09:53:00,81.1,73.2,29.93,WNW,288,0.0,2.9,77,0.00,,,0.00,meteobridge,2013-08-28 13:53:00,
2013-08-28 09:58:00,81.0,72.7,29.93,South,186,6.9,6.9,76,0.00,,,0.00,meteobridge,2013-08-28 13:58:00,
2013-08-28 10:03:00,80.8,72.5,29.93,South,188,4.0,10.1,76,0.00,,,0.00,meteobridge,2013-08-28 14:03:00,
2013-08-28 10:08:00,81.0,73.0,29.93,WSW,254,2.0,6.9,77,0.00,,,0.00,meteobridge,2013-08-28 14:08:00,
2013-08-28 10:13:00,81.1,72.9,29.93,West,264,4.0,6.0,76,0.00,,,0.00,meteobridge,2013-08-28 14:13:00,
2013-08-28 10:18:00,81.1,72.9,29.93,SSW,212,2.0,6.0,76,0.00,,,0.00,meteobridge,2013-08-28 14:18:00,
2013-08-28 10:23:00,81.1,72.9,29.93,South,179,2.0,6.9,76,0.00,,,0.00,meteobridge,2013-08-28 14:23:00,
2013-08-28 10:28:00,81.1,72.9,29.93,SSW,208,2.0,8.1,76,0.00,,,0.00,meteobridge,2013-08-28 14:28:00,
2013-08-28 10:33:00,81.1,72.9,29.92,South,175,0.9,6.0,76,0.00,,,0.00,meteobridge,2013-08-28 14:33:00,
2013-08-28 10:38:00,81.7,73.4,29.92,WSW,250,0.0,6.0,76,0.00,,,0.00,meteobridge,2013-08-28 14:38:00,
2013-08-28 10:43:00,82.2,73.6,29.92,West,277,4.9,6.0,75,0.00,,,0.00,meteobridge,2013-08-28 14:43:00,
2013-08-28 10:48:00,82.4,73.8,29.92,SW,223,6.0,6.9,75,0.00,,,0.00,meteobridge,2013-08-28 14:48:00,
2013-08-28 10:53:00,82.4,73.2,29.92,South,174,4.9,10.1,74,0.00,,,0.00,meteobridge,2013-08-28 14:53:00,
2013-08-28 10:58:00,82.2,73.0,29.92,WSW,243,6.0,6.9,74,0.00,,,0.00,meteobridge,2013-08-28 14:58:00,
2013-08-28 11:03:00,82.2,73.0,29.91,South,176,2.0,10.1,74,0.00,,,0.00,meteobridge,2013-08-28 15:03:00,
2013-08-28 11:08:00,81.9,72.7,29.91,SW,229,4.9,6.0,74,0.00,,,0.00,meteobridge,2013-08-28 15:08:00,
2013-08-28 11:13:00,82.0,73.4,29.91,SW,229,2.0,6.0,75,0.00,,,0.00,meteobridge,2013-08-28 15:13:00,
2013-08-28 11:18:00,82.2,73.0,29.91,SW,234,2.9,4.9,74,0.00,,,0.00,meteobridge,2013-08-28 15:18:00,
2013-08-28 11:23:00,82.4,72.9,29.91,SSW,205,2.9,8.1,73,0.00,,,0.00,meteobridge,2013-08-28 15:23:00,
2013-08-28 11:28:00,82.6,73.0,29.91,West,277,2.9,10.1,73,0.00,,,0.00,meteobridge,2013-08-28 15:28:00,
2013-08-28 11:33:00,82.6,73.0,29.91,SW,233,0.9,4.9,73,0.00,,,0.00,meteobridge,2013-08-28 15:33:00,
2013-08-28 11:38:00,82.6,73.0,29.91,SSW,213,0.9,6.0,73,0.00,,,0.00,meteobridge,2013-08-28 15:38:00,
2013-08-28 11:43:00,82.8,72.9,29.91,West,268,2.9,6.0,72,0.00,,,0.00,meteobridge,2013-08-28 15:43:00,
2013-08-28 11:48:00,82.8,72.9,29.91,WSW,239,2.9,6.9,72,0.00,,,0.00,meteobridge,2013-08-28 15:48:00,
2013-08-28 11:54:00,82.9,73.0,29.91,WSW,258,0.9,8.1,72,0.00,,,0.00,meteobridge,2013-08-28 15:54:00,
2013-08-28 11:59:00,83.5,73.6,29.91,SSW,205,6.0,6.0,72,0.00,,,0.00,meteobridge,2013-08-28 15:59:00,
2013-08-28 12:04:00,83.8,73.4,29.91,WSW,240,0.9,8.1,71,0.00,,,0.00,meteobridge,2013-08-28 16:04:00,
2013-08-28 12:09:00,84.0,73.9,29.91,SSW,208,4.0,8.1,72,0.00,,,0.00,meteobridge,2013-08-28 16:09:00,
2013-08-28 12:14:00,84.7,74.3,29.91,WNW,282,8.1,11.0,71,0.00,,,0.00,meteobridge,2013-08-28 16:14:00,
2013-08-28 12:19:00,85.3,74.8,29.90,West,272,2.9,4.0,71,0.00,,,0.00,meteobridge,2013-08-28 16:19:00,
2013-08-28 12:24:00,85.1,74.1,29.90,SSW,198,2.0,6.9,70,0.00,,,0.00,meteobridge,2013-08-28 16:24:00,
2013-08-28 12:29:00,84.9,74.5,29.90,SW,223,0.0,2.9,71,0.00,,,0.00,meteobridge,2013-08-28 16:29:00,
2013-08-28 12:34:00,85.1,74.1,29.90,SSW,192,0.9,4.9,70,0.00,,,0.00,meteobridge,2013-08-28 16:34:00,
2013-08-28 12:39:00,85.5,73.8,29.90,South,172,10.1,12.1,68,0.00,,,0.00,meteobridge,2013-08-28 16:39:00,
2013-08-28 12:44:00,85.8,73.2,29.89,South,171,0.9,8.1,66,0.00,,,0.00,meteobridge,2013-08-28 16:44:00,
2013-08-28 12:49:00,86.2,73.0,29.89,WSW,248,2.0,10.1,65,0.00,,,0.00,meteobridge,2013-08-28 16:49:00,
2013-08-28 12:54:00,86.7,73.0,29.89,WNW,299,2.9,8.1,64,0.00,,,0.00,meteobridge,2013-08-28 16:54:00,
2013-08-28 12:59:00,87.1,72.0,29.89,SSW,205,4.0,10.1,61,0.00,,,0.00,meteobridge,2013-08-28 16:59:00,
2013-08-28 13:04:00,87.3,73.0,29.89,South,189,0.0,4.0,63,0.00,,,0.00,meteobridge,2013-08-28 17:04:00,
2013-08-28 13:09:00,87.4,73.2,29.89,West,271,2.0,6.9,63,0.00,,,0.00,meteobridge,2013-08-28 17:09:00,
2013-08-28 13:14:00,87.8,73.6,29.88,WSW,257,4.0,8.9,63,0.00,,,0.00,meteobridge,2013-08-28 17:14:00,
2013-08-28 13:24:00,88.5,73.4,29.88,West,272,6.0,8.1,61,0.00,,,0.00,meteobridge,2013-08-28 17:24:00,
2013-08-28 13:29:00,89.1,72.9,29.88,WSW,254,2.0,6.0,59,0.00,,,0.00,meteobridge,2013-08-28 17:29:00,
2013-08-28 13:34:00,88.5,72.9,29.88,West,277,6.9,12.1,60,0.00,,,0.00,meteobridge,2013-08-28 17:34:00,
2013-08-28 13:39:00,88.0,72.3,29.88,South,191,0.0,6.9,60,0.00,,,0.00,meteobridge,2013-08-28 17:39:00,
2013-08-28 13:44:00,88.0,72.9,29.88,West,263,6.0,6.9,61,0.00,,,0.00,meteobridge,2013-08-28 17:44:00,
2013-08-28 13:49:00,88.0,72.3,29.88,West,271,4.0,6.9,60,0.00,,,0.00,meteobridge,2013-08-28 17:49:00,
2013-08-28 13:54:00,88.5,71.8,29.88,WSW,251,6.9,14.1,58,0.00,,,0.00,meteobridge,2013-08-28 17:54:00,
2013-08-28 13:59:00,88.9,72.7,29.88,WSW,243,0.9,10.1,59,0.00,,,0.00,meteobridge,2013-08-28 17:59:00,
2013-08-28 14:04:00,89.2,73.0,29.88,West,260,2.0,10.1,59,0.00,,,0.00,meteobridge,2013-08-28 18:04:00,
2013-08-28 14:09:00,89.1,72.3,29.88,WNW,284,6.9,10.1,58,0.00,,,0.00,meteobridge,2013-08-28 18:09:00,
2013-08-28 14:14:00,89.4,72.7,29.87,West,267,6.0,16.1,58,0.00,,,0.00,meteobridge,2013-08-28 18:14:00,
2013-08-28 14:19:00,89.8,72.5,29.87,WSW,247,2.0,12.1,57,0.00,,,0.00,meteobridge,2013-08-28 18:19:00,
2013-08-28 14:24:00,89.8,72.5,29.87,WNW,282,0.9,12.1,57,0.00,,,0.00,meteobridge,2013-08-28 18:24:00,
2013-08-28 14:29:00,89.2,72.0,29.87,SSE,165,4.0,13.0,57,0.00,,,0.00,meteobridge,2013-08-28 18:29:00,
2013-08-28 14:34:00,88.5,72.9,29.87,SSE,155,2.0,13.0,60,0.00,,,0.00,meteobridge,2013-08-28 18:34:00,
2013-08-28 14:39:00,88.5,71.8,29.87,SSW,212,6.9,8.1,58,0.00,,,0.00,meteobridge,2013-08-28 18:39:00,
2013-08-28 14:44:00,88.5,71.8,29.86,South,181,4.9,13.0,58,0.00,,,0.00,meteobridge,2013-08-28 18:44:00,
2013-08-28 14:49:00,88.5,71.8,29.86,WSW,251,6.0,14.1,58,0.00,,,0.00,meteobridge,2013-08-28 18:49:00,
2013-08-28 14:54:00,89.1,73.4,29.86,South,191,11.0,14.1,60,0.00,,,0.00,meteobridge,2013-08-28 18:54:00,
2013-08-28 14:59:00,89.2,72.5,29.86,SSW,202,8.1,11.0,58,0.00,,,0.00,meteobridge,2013-08-28 18:59:00,
2013-08-28 15:04:00,89.8,72.5,29.86,South,181,6.0,13.0,57,0.00,,,0.00,meteobridge,2013-08-28 19:04:00,
2013-08-28 15:09:00,89.4,72.7,29.86,SW,232,2.0,6.9,58,0.00,,,0.00,meteobridge,2013-08-28 19:09:00,
2013-08-28 15:14:00,89.4,72.1,29.85,SSW,208,2.9,12.1,57,0.00,,,0.00,meteobridge,2013-08-28 19:14:00,
2013-08-28 15:19:00,89.8,72.5,29.85,SSE,168,6.0,12.1,57,0.00,,,0.00,meteobridge,2013-08-28 19:19:00,
2013-08-28 15:24:00,90.1,72.9,29.85,SSW,208,6.0,12.1,57,0.00,,,0.00,meteobridge,2013-08-28 19:24:00,
2013-08-28 15:29:00,90.3,73.0,29.84,WSW,240,2.0,13.0,57,0.00,,,0.00,meteobridge,2013-08-28 19:29:00,
2013-08-28 15:34:00,90.0,72.7,29.84,WNW,289,6.0,8.1,57,0.00,,,0.00,meteobridge,2013-08-28 19:34:00,
2013-08-28 15:39:00,89.4,72.1,29.84,SW,220,8.1,12.1,57,0.00,,,0.00,meteobridge,2013-08-28 19:39:00,
2013-08-28 15:44:00,89.4,71.6,29.83,South,171,10.1,13.0,56,0.00,,,0.00,meteobridge,2013-08-28 19:44:00,
2013-08-28 15:49:00,89.1,72.3,29.83,SW,236,4.9,13.0,58,0.00,,,0.00,meteobridge,2013-08-28 19:49:00,
2013-08-28 15:54:00,89.1,72.9,29.83,SSW,200,0.9,8.1,59,0.00,,,0.00,meteobridge,2013-08-28 19:54:00,
2013-08-28 15:59:00,89.4,72.1,29.83,SW,226,2.0,6.0,57,0.00,,,0.00,meteobridge,2013-08-28 19:59:00,
2013-08-28 16:04:00,89.1,71.2,29.83,WSW,239,6.0,11.0,56,0.00,,,0.00,meteobridge,2013-08-28 20:04:00,
2013-08-28 16:09:00,88.3,70.7,29.83,South,186,2.0,12.1,56,0.00,,,0.00,meteobridge,2013-08-28 20:09:00,
2013-08-28 16:14:00,88.2,71.1,29.83,WSW,246,2.0,6.9,57,0.00,,,0.00,meteobridge,2013-08-28 20:14:00,
2013-08-28 16:19:00,88.0,70.9,29.83,South,185,8.1,11.0,57,0.00,,,0.00,meteobridge,2013-08-28 20:19:00,
2013-08-28 16:24:00,87.8,70.7,29.83,WSW,244,2.0,11.0,57,0.00,,,0.00,meteobridge,2013-08-28 20:24:00,
2013-08-28 16:29:00,87.6,71.1,29.83,WSW,253,4.9,8.1,58,0.00,,,0.00,meteobridge,2013-08-28 20:29:00,
2013-08-28 16:34:00,87.3,70.7,29.83,WSW,253,4.9,6.0,58,0.00,,,0.00,meteobridge,2013-08-28 20:34:00,
2013-08-28 16:39:00,87.1,71.4,29.83,SW,223,4.0,6.9,60,0.00,,,0.00,meteobridge,2013-08-28 20:39:00,
2013-08-28 16:44:00,86.7,70.7,29.82,SSW,196,6.9,8.1,59,0.00,,,0.00,meteobridge,2013-08-28 20:44:00,
2013-08-28 16:49:00,86.5,70.5,29.82,NW,306,2.9,13.0,59,0.00,,,0.00,meteobridge,2013-08-28 20:49:00,
2013-08-28 16:54:00,86.5,71.1,29.82,SW,227,4.9,8.1,60,0.00,,,0.00,meteobridge,2013-08-28 20:54:00,
2013-08-28 16:59:00,86.5,71.1,29.81,WSW,247,2.0,8.1,60,0.00,,,0.00,meteobridge,2013-08-28 20:59:00,
2013-08-28 17:04:00,86.7,71.2,29.81,WSW,258,6.9,6.9,60,0.00,,,0.00,meteobridge,2013-08-28 21:04:00,
2013-08-28 17:10:00,87.4,71.8,29.81,SW,219,0.0,2.0,60,0.00,,,0.00,meteobridge,2013-08-28 21:10:00,
2013-08-28 17:15:00,87.8,72.1,29.83,WSW,253,2.0,4.0,60,0.00,,,0.00,meteobridge,2013-08-28 21:15:00,
2013-08-28 17:20:00,88.0,71.8,29.83,SSW,193,2.9,8.1,59,0.00,,,0.00,meteobridge,2013-08-28 21:20:00,
2013-08-28 17:25:00,87.6,71.6,29.83,SW,222,2.0,11.0,59,0.00,,,0.00,meteobridge,2013-08-28 21:25:00,
2013-08-28 17:30:00,87.4,71.8,29.82,South,179,0.0,4.9,60,0.00,,,0.00,meteobridge,2013-08-28 21:30:00,
2013-08-28 17:35:00,87.1,72.0,29.82,SW,222,6.0,6.0,61,0.00,,,0.00,meteobridge,2013-08-28 21:35:00,
2013-08-28 17:40:00,86.7,71.6,29.82,WSW,239,2.0,6.0,61,0.00,,,0.00,meteobridge,2013-08-28 21:40:00,
2013-08-28 17:45:00,86.5,72.0,29.81,SSW,212,0.0,6.0,62,0.00,,,0.00,meteobridge,2013-08-28 21:45:00,
2013-08-28 17:50:00,86.4,72.3,29.81,SW,226,4.0,4.0,63,0.00,,,0.00,meteobridge,2013-08-28 21:50:00,
2013-08-28 17:55:00,86.2,72.1,29.81,WSW,256,6.9,11.0,63,0.00,,,0.00,meteobridge,2013-08-28 21:55:00,
2013-08-28 18:00:00,86.4,71.8,29.80,WSW,256,0.9,8.1,62,0.00,,,0.00,meteobridge,2013-08-28 22:00:00,
2013-08-28 18:05:00,86.5,72.0,29.80,North,3,4.9,6.0,62,0.00,,,0.00,meteobridge,2013-08-28 22:05:00,
2013-08-28 18:10:00,85.5,73.8,29.80,NNE,21,0.9,6.0,68,0.00,,,0.00,meteobridge,2013-08-28 22:10:00,
2013-08-28 18:15:00,83.7,74.8,29.83,NE,42,0.0,2.9,75,0.02,,,0.02,meteobridge,2013-08-28 22:15:00,
2013-08-28 18:20:00,82.0,74.5,29.83,East,96,2.0,2.0,78,0.05,,,0.05,meteobridge,2013-08-28 22:20:00,
2013-08-28 18:25:00,81.0,75.0,29.83,ENE,75,2.9,4.0,82,0.12,,,0.12,meteobridge,2013-08-28 22:25:00,
2013-08-28 18:30:00,78.6,73.4,29.82,NNE,20,14.1,30.0,84,0.16,,,0.16,meteobridge,2013-08-28 22:30:00,
2013-08-28 18:35:00,75.0,70.5,29.82,North,8,4.9,21.0,86,0.22,,,0.22,meteobridge,2013-08-28 22:35:00,
2013-08-28 18:40:00,73.6,70.7,29.82,ESE,109,0.9,4.9,91,0.42,,,0.42,meteobridge,2013-08-28 22:40:00,
2013-08-28 18:45:00,72.9,70.7,29.83,SE,128,0.9,6.0,93,0.43,,,0.43,meteobridge,2013-08-28 22:45:00,
2013-08-28 18:50:00,72.9,71.4,29.83,SE,130,0.0,0.0,95,0.43,,,0.43,meteobridge,2013-08-28 22:50:00,
2013-08-28 18:55:00,73.6,72.1,29.83,SW,223,4.9,6.9,95,0.43,,,0.43,meteobridge,2013-08-28 22:55:00,
2013-08-28 19:00:00,73.9,72.5,29.82,WSW,240,0.0,0.0,95,0.44,,,0.44,meteobridge,2013-08-28 23:00:00,
2013-08-28 19:05:00,74.5,73.2,29.82,WSW,240,0.0,0.0,96,0.44,,,0.44,meteobridge,2013-08-28 23:05:00,
2013-08-28 19:10:00,74.8,73.6,29.82,WSW,240,0.9,0.9,96,0.44,,,0.44,meteobridge,2013-08-28 23:10:00,
2013-08-28 19:15:00,75.0,73.8,29.86,North,349,6.0,6.0,96,0.41,,,0.44,meteobridge,2013-08-28 23:15:00,
2013-08-28 19:20:00,74.7,73.2,29.86,ENE,72,0.9,12.1,95,0.39,,,0.44,meteobridge,2013-08-28 23:20:00,
2013-08-28 19:25:00,74.8,73.2,29.86,NNE,30,4.0,12.1,95,0.33,,,0.45,meteobridge,2013-08-28 23:25:00,
2013-08-28 19:30:00,74.8,73.2,29.85,North,8,2.9,8.1,95,0.41,,,0.58,meteobridge,2013-08-28 23:30:00,
2013-08-28 19:36:00,74.8,73.6,29.85,North,10,0.9,0.9,96,0.55,,,0.77,meteobridge,2013-08-28 23:36:00,
2013-08-28 19:41:00,74.8,73.9,29.85,North,10,0.9,2.0,97,0.45,,,0.88,meteobridge,2013-08-28 23:41:00,
2013-08-28 19:46:00,74.8,73.9,29.87,North,11,0.9,2.0,97,0.45,,,0.88,meteobridge,2013-08-28 23:46:00,
2013-08-28 19:51:00,74.7,73.8,29.87,ENE,73,0.0,0.9,97,0.46,,,0.89,meteobridge,2013-08-28 23:51:00,
2013-08-28 19:56:00,74.7,73.8,29.87,ESE,104,0.0,2.0,97,0.46,,,0.89,meteobridge,2013-08-28 23:56:00,
2013-08-28 20:01:00,74.7,74.1,29.86,ESE,104,2.0,2.0,98,0.45,,,0.89,meteobridge,2013-08-29 00:01:00,
2013-08-28 20:06:00,74.8,74.3,29.86,WNW,294,0.0,6.0,98,0.50,,,0.94,meteobridge,2013-08-29 00:06:00,
2013-08-28 20:11:00,74.8,74.3,29.86,WSW,251,0.0,2.0,98,0.65,,,1.09,meteobridge,2013-08-29 00:11:00,
2013-08-28 20:16:00,74.8,74.3,29.87,WSW,253,2.0,6.0,98,0.67,,,1.11,meteobridge,2013-08-29 00:16:00,
2013-08-28 20:21:00,74.7,74.1,29.87,South,186,0.0,0.0,98,0.69,,,1.13,meteobridge,2013-08-29 00:21:00,
2013-08-28 20:26:00,74.7,74.1,29.87,South,186,0.0,0.0,98,0.67,,,1.13,meteobridge,2013-08-29 00:26:00,
2013-08-28 20:32:00,74.8,74.3,29.87,South,186,0.0,0.0,98,0.51,,,1.13,meteobridge,2013-08-29 00:32:00,
2013-08-28 20:37:00,74.8,74.3,29.87,South,186,0.0,0.0,98,0.29,,,1.13,meteobridge,2013-08-29 00:37:00,
2013-08-28 20:42:00,74.8,74.3,29.87,South,186,0.0,0.9,98,0.25,,,1.13,meteobridge,2013-08-29 00:42:00,
2013-08-28 20:47:00,74.8,74.3,29.87,South,186,0.9,2.9,98,0.24,,,1.13,meteobridge,2013-08-29 00:47:00,
2013-08-28 20:53:00,74.7,74.1,29.87,South,186,0.0,0.0,98,0.24,,,1.13,meteobridge,2013-08-29 00:53:00,
2013-08-28 20:58:00,74.7,74.1,29.87,South,186,0.0,0.0,98,0.24,,,1.13,meteobridge,2013-08-29 00:58:00,
2013-08-28 21:03:00,74.7,74.3,29.87,South,186,0.0,0.0,99,0.24,,,1.13,meteobridge,2013-08-29 01:03:00,
2013-08-28 21:08:00,74.8,74.5,29.87,South,186,0.0,0.0,99,0.11,,,1.13,meteobridge,2013-08-29 01:08:00,
2013-08-28 21:14:00,74.8,74.5,29.87,South,186,0.0,0.0,99,0.03,,,1.13,meteobridge,2013-08-29 01:14:00,
2013-08-28 21:19:00,74.8,74.5,29.88,South,186,0.0,0.0,99,0.00,,,1.13,meteobridge,2013-08-29 01:19:00,
2013-08-28 21:24:00,74.7,74.3,29.88,South,186,0.0,0.0,99,0.00,,,1.13,meteobridge,2013-08-29 01:24:00,
2013-08-28 21:29:00,74.8,74.5,29.89,South,186,0.0,0.0,99,0.00,,,1.13,meteobridge,2013-08-29 01:29:00,
2013-08-28 21:34:00,74.8,74.5,29.89,South,186,0.0,0.0,99,0.00,,,1.13,meteobridge,2013-08-29 01:34:00,
2013-08-28 21:39:00,75.0,74.7,29.89,South,186,0.0,0.9,99,0.00,,,1.13,meteobridge,2013-08-29 01:39:00,
2013-08-28 21:44:00,75.0,74.7,29.89,South,186,0.0,0.0,99,0.00,,,1.13,meteobridge,2013-08-29 01:44:00,
2013-08-28 21:49:00,75.0,74.7,29.89,South,186,0.0,0.0,99,0.00,,,1.13,meteobridge,2013-08-29 01:49:00,
2013-08-28 21:55:00,74.8,74.5,29.89,South,186,0.0,0.0,99,0.00,,,1.13,meteobridge,2013-08-29 01:55:00,
2013-08-28 22:00:00,74.8,74.5,29.90,South,186,0.0,0.0,99,0.00,,,1.13,meteobridge,2013-08-29 02:00:00,
2013-08-28 22:05:00,74.8,74.3,29.90,South,186,0.0,0.0,98,0.00,,,1.13,meteobridge,2013-08-29 02:05:00,
2013-08-28 22:10:00,74.8,74.3,29.90,South,186,0.0,0.0,98,0.00,,,1.13,meteobridge,2013-08-29 02:10:00,
2013-08-28 22:15:00,74.8,74.5,29.90,South,186,0.0,0.0,99,0.00,,,1.13,meteobridge,2013-08-29 02:15:00,
2013-08-28 22:21:00,74.8,74.5,29.90,South,186,0.0,0.0,99,0.00,,,1.13,meteobridge,2013-08-29 02:21:00,
2013-08-28 22:26:00,74.7,74.3,29.90,South,186,0.0,0.0,99,0.00,,,1.13,meteobridge,2013-08-29 02:26:00,
2013-08-28 22:31:00,74.7,74.3,29.90,South,186,0.0,0.0,99,0.00,,,1.13,meteobridge,2013-08-29 02:31:00,
2013-08-28 22:36:00,74.7,74.3,29.90,South,186,0.0,0.0,99,0.00,,,1.13,meteobridge,2013-08-29 02:36:00,
2013-08-28 22:41:00,74.7,74.3,29.90,South,186,0.0,0.0,99,0.00,,,1.13,meteobridge,2013-08-29 02:41:00,
2013-08-28 22:46:00,74.7,74.3,29.90,South,186,0.0,0.9,99,0.00,,,1.13,meteobridge,2013-08-29 02:46:00,
2013-08-28 22:51:00,74.5,74.1,29.90,South,186,0.0,0.0,99,0.00,,,1.13,meteobridge,2013-08-29 02:51:00,
2013-08-28 22:57:00,74.5,74.1,29.90,South,186,0.0,0.0,99,0.00,,,1.13,meteobridge,2013-08-29 02:57:00,
2013-08-28 23:02:00,74.5,74.1,29.91,South,186,0.0,0.0,99,0.00,,,1.13,meteobridge,2013-08-29 03:02:00,
2013-08-28 23:07:00,74.5,74.1,29.91,South,186,0.0,0.0,99,0.00,,,1.13,meteobridge,2013-08-29 03:07:00,
2013-08-28 23:12:00,74.5,74.1,29.91,South,186,0.0,0.0,99,0.00,,,1.13,meteobridge,2013-08-29 03:12:00,
2013-08-28 23:17:00,74.1,73.8,29.90,South,186,0.0,0.0,99,0.00,,,1.13,meteobridge,2013-08-29 03:17:00,
2013-08-28 23:22:00,74.1,73.8,29.90,South,186,0.0,0.0,99,0.00,,,1.13,meteobridge,2013-08-29 03:22:00,
2013-08-28 23:27:00,74.1,73.8,29.90,South,186,0.0,0.0,99,0.00,,,1.13,meteobridge,2013-08-29 03:27:00,
2013-08-28 23:32:00,73.9,73.6,29.90,South,186,0.0,0.0,99,0.00,,,1.13,meteobridge,2013-08-29 03:32:00,
2013-08-28 23:37:00,73.9,73.6,29.90,South,186,0.0,0.0,99,0.00,,,1.13,meteobridge,2013-08-29 03:37:00,
2013-08-28 23:43:00,73.9,73.6,29.90,South,186,0.0,0.0,99,0.00,,,1.13,meteobridge,2013-08-29 03:43:00,
2013-08-28 23:48:00,73.9,73.6,29.90,South,186,0.0,0.0,99,0.00,,,1.13,meteobridge,2013-08-29 03:48:00,
2013-08-28 23:53:00,73.9,73.6,29.90,South,186,0.0,0.0,99,0.00,,,1.13,meteobridge,2013-08-29 03:53:00,
2013-08-28 23:58:00,73.9,73.6,29.90,South,186,0.0,0.0,99,0.00,,,1.13,meteobridge,2013-08-29 03:58:00,